OBBI/BAH METAR and TAF weather

Enter ICAO airport designator
Station Type Date Time Source
OBBI METAR 2019/12/07 00:00 UTC NOAA

OBBI 070000Z 13004KT CAVOK 21/16 Q1016 NOSIG


Station Type Date Time Source
OBBI Decoded METAR 2019/12/07 00:00 UTC NOAA

Bahrain International Airport , Bahrain (OBBI) 26-16N 050-39E 2M
Dec 06, 2019 - 07:00 PM EST / 2019.12.07 0000 UTC
Wind: from the SE (130 degrees) at 5 MPH (4 KT):0
Visibility: greater than 7 mile(s):0
Temperature: 69 F (21 C)
Dew Point: 60 F (16 C)
Relative Humidity: 73%
Pressure (altimeter): 30.00 in. Hg (1016 hPa)
ob: OBBI 070000Z 13004KT CAVOK 21/16 Q1016 NOSIG
cycle: 0

Station Type Date Time Source
OBBI TAF 2019/12/06 18:50 UTC NOAA

TAF OBBI 061700Z 0618/0800 12008KT 9999 FEW030 PROB30
TEMPO 0722/0800 33015G30KT 5000 TSRA FEW040CB BKN080

Example: see airport list